Terminal Aerodrome Forecast
Issued by NWS Memphis, TN

Home | Current Version | Previous Version | Text Only | Print | Product List | Glossary On
Versions: 1 2 3 4 5 6 7 8 9 10 11 12 13 14
785
FTUS44 KMEG 121122
TAFMKL
TAF
KMKL 121122Z 1212/1312 02005KT P6SM SCT150
     FM121600 35010KT P6SM FEW035 SCT090
      TEMPO 1221/1224 BKN035
     FM130200 36010G16KT P6SM SCT035 SCT120=

USA.gov is the U.S. government's official web portal to all federal, state and local government web resources and services.